Latest Weather Observations for Nhill Aerodrome

IDV60801

Issued at 9:52 am EST Saturday 13 April 2024 (issued every 10 minutes, with the page automatically refreshed every 10 minutes)

About weather observations | Map of weather stations | Latest weather observations for VIC | Other Formats
Station Details ID: 078015 Name: NHILL AERODROME Lat: -36.31 Lon: 141.65 Height: 138.9 m
Data from the previous 72 hours. | See also: Recent months at Nhill Aerodrome
Date/Time
EST
Temp
°C
App
Temp
°C
Dew
Point
°C
Rel
Hum
%
Delta-T
°C
Wind Press
QNH
hPa
Press
MSL
hPa
Rain since
9am
mm
Dir  Spd
km/h
Gust
km/h
Spd
kts
Gust
kts
13/09:30am 13.5 11.3 9.2 75 2.2 SW 11 15 6 8 1025.3 1025.2 0.0
13/09:00am 12.1 11.0 10.5 90 0.8 SW 7 11 4 6 1025.3 1025.2 0.0
13/08:30am 9.6 9.3 8.7 94 0.4 CALM 0 6 0 3 1025.1 1025.0 0.0
13/08:00am 7.4 6.6 6.5 94 0.4 CALM 0 0 0 0 1024.8 1024.7 0.0
13/07:30am 6.3 5.3 5.4 94 0.4 CALM 0 0 0 0 1024.6 1024.5 0.0
13/07:00am 6.0 4.9 5.1 94 0.4 CALM 0 0 0 0 1024.3 1024.2 0.0
13/06:30am 6.2 5.1 5.3 94 0.4 CALM 0 0 0 0 1024.1 1023.9 0.0
13/06:00am 6.4 4.2 5.5 94 0.4 S 6 7 3 4 1024.0 1023.8 0.0
13/05:30am 6.7 5.7 5.7 93 0.4 CALM 0 0 0 0 1023.7 1023.5 0.0
13/05:00am 6.9 5.9 5.8 93 0.5 CALM 0 4 0 2 1023.5 1023.3 0.0
13/04:30am 7.8 7.0 6.6 92 0.6 CALM 0 0 0 0 1023.4 1023.2 0.0
13/04:00am 8.2 6.4 7.0 92 0.6 S 6 6 3 3 1023.2 1023.0 0.0
13/03:30am 8.5 6.7 7.1 91 0.7 S 6 7 3 4 1023.2 1023.0 0.0
13/03:00am 8.7 6.4 7.3 91 0.7 S 9 9 5 5 1023.3 1023.1 0.0
13/02:30am 8.2 5.3 6.7 90 0.7 S 11 13 6 7 1023.6 1023.4 0.0
13/02:00am 8.7 5.9 7.0 89 0.8 SSW 11 13 6 7 1023.7 1023.5 0.0
13/01:30am 8.7 5.8 6.7 87 0.9 SSW 11 13 6 7 1023.7 1023.5 0.0
13/01:00am 9.5 7.5 7.3 86 1.0 SSW 7 9 4 5 1023.6 1023.4 0.0
13/12:30am 9.4 7.6 7.0 85 1.1 SSE 6 7 3 4 1023.5 1023.3 0.0
13/12:00am 9.6 7.2 7.0 84 1.2 S 9 11 5 6 1023.3 1023.1 0.0
 
Date/Time
EST
Temp
°C
App
Temp
°C
Dew
Point
°C
Rel
Hum
%
Delta-T
°C
Wind Press
QNH
hPa
Press
MSL
hPa
Rain since
9am
mm
Dir  Spd
km/h
Gust
km/h
Spd
kts
Gust
kts
12/11:30pm 10.0 7.6 6.9 81 1.5 S 9 11 5 6 1023.4 1023.2 0.0
12/11:00pm 10.3 7.9 7.0 80 1.6 S 9 11 5 6 1023.5 1023.3 0.0
12/10:30pm 10.7 8.6 6.8 77 1.9 SW 7 9 4 5 1023.5 1023.3 0.0
12/10:00pm 10.3 8.1 5.3 71 2.3 SW 6 9 3 5 1023.4 1023.2 0.0
12/09:30pm 10.7 8.2 5.0 68 2.6 SW 7 9 4 5 1023.2 1023.0 0.0
12/09:00pm 11.3 8.2 5.6 68 2.6 S 11 11 6 6 1022.9 1022.7 0.0
12/08:30pm 11.7 9.0 5.8 67 2.8 SSW 9 11 5 6 1022.9 1022.7 0.0
12/08:00pm 11.8 9.4 5.4 65 3.0 SSW 7 9 4 5 1022.7 1022.5 0.0
12/07:30pm 13.2 10.2 5.9 61 3.5 SW 11 13 6 7 1022.6 1022.4 0.0
12/07:00pm 14.1 10.3 6.0 58 3.9 SW 15 17 8 9 1022.3 1022.1 0.0
12/06:30pm 15.1 10.9 5.9 54 4.4 SW 17 20 9 11 1022.0 1021.8 0.0
12/06:00pm 16.8 12.5 5.4 47 5.5 SW 17 22 9 12 1021.7 1021.5 0.0
12/05:30pm 18.1 13.8 5.3 43 6.2 SW 17 22 9 12 1021.5 1021.3 0.0
12/05:00pm 18.4 13.6 4.6 40 6.6 SW 19 26 10 14 1021.3 1021.1 0.0
12/04:30pm 19.1 14.7 4.5 38 7.1 SW 17 24 9 13 1021.2 1021.0 0.0
12/04:00pm 19.0 14.2 4.4 38 7.0 SW 19 28 10 15 1021.3 1021.1 0.0
12/03:30pm 19.2 14.8 4.6 38 7.1 SSW 17 26 9 14 1021.5 1021.3 0.0
12/03:00pm 18.7 13.9 4.8 40 6.7 SSW 19 28 10 15 1021.7 1021.5 0.0
12/02:30pm 18.3 13.5 4.8 41 6.5 SSW 19 33 10 18 1021.9 1021.7 0.0
12/02:00pm 17.7 12.5 5.3 44 6.0 SSW 22 32 12 17 1022.3 1022.1 0.0
12/01:30pm 17.5 12.8 5.1 44 6.0 SSW 19 32 10 17 1022.8 1022.6 0.0
12/01:00pm 16.5 12.5 4.9 46 5.5 WSW 15 30 8 16 1023.4 1023.2 0.0
12/12:30pm 16.0 12.8 5.0 48 5.2 SW 11 22 6 12 1024.1 1023.9 0.0
12/12:00pm 15.3 11.0 5.2 51 4.8 SW 17 24 9 13 1024.5 1024.4 0.0
12/11:30am 14.8 11.3 5.6 54 4.4 SW 13 19 7 10 1024.8 1024.7 0.0
12/11:00am 13.7 9.8 5.3 57 3.9 SW 15 22 8 12 1025.0 1024.9 0.0
12/10:30am 12.9 9.7 5.1 59 3.6 WSW 11 22 6 12 1025.5 1025.4 0.0
12/10:00am 12.7 8.8 5.4 61 3.4 SSW 15 22 8 12 1025.6 1025.5 0.0
12/09:30am 12.3 7.7 5.7 64 3.1 SSW 19 26 10 14 1025.4 1025.3 0.0
12/09:00am 11.9 8.3 6.8 71 2.4 SSW 15 19 8 10 1025.3 1025.2 0.0
12/08:30am 11.2 8.5 7.3 77 1.9 S 11 15 6 8 1025.0 1024.9 0.0
12/08:00am 10.1 8.3 7.2 82 1.4 SSE 6 7 3 4 1024.2 1024.1 0.0
12/07:30am 9.5 7.1 6.9 84 1.2 SSE 9 11 5 6 1023.6 1023.4 0.0
12/07:00am 8.4 6.2 6.0 85 1.1 S 7 11 4 6 1023.5 1023.3 0.0
12/06:30am 8.1 5.5 6.1 87 0.9 S 9 11 5 6 1023.5 1023.3 0.0
12/06:00am 8.6 6.1 6.4 86 1.0 S 9 9 5 5 1023.2 1023.0 0.0
12/05:30am 9.0 6.1 6.4 84 1.2 S 11 13 6 7 1023.2 1023.0 0.0
12/05:00am 10.3 7.1 7.0 80 1.6 S 13 13 7 7 1023.1 1022.9 0.0
12/04:30am 11.1 9.2 7.4 78 1.8 S 7 9 4 5 1023.1 1022.9 0.0
12/04:00am 10.5 8.1 7.2 80 1.6 S 9 13 5 7 1023.1 1022.9 0.0
12/03:30am 9.6 7.2 6.9 83 1.3 S 9 11 5 6 1023.2 1023.0 0.0
12/03:00am 8.2 5.5 5.8 85 1.1 SSE 9 11 5 6 1023.2 1023.0 0.0
12/02:30am 7.9 5.1 5.2 83 1.2 SSE 9 13 5 7 1023.4 1023.2 0.0
12/02:00am 8.4 7.0 5.3 81 1.4 SSE 2 9 1 5 1023.5 1023.3 0.0
12/01:30am 8.1 5.4 5.6 84 1.1 SSE 9 11 5 6 1023.7 1023.5 0.0
12/01:00am 8.0 5.6 5.3 83 1.2 SSE 7 9 4 5 1023.5 1023.3 0.0
12/12:30am 8.7 6.3 5.4 80 1.5 SSE 7 9 4 5 1023.6 1023.4 0.0
12/12:00am 9.3 7.0 5.5 77 1.7 SSE 7 9 4 5 1023.6 1023.4 0.0
 
Date/Time
EST
Temp
°C
App
Temp
°C
Dew
Point
°C
Rel
Hum
%
Delta-T
°C
Wind Press
QNH
hPa
Press
MSL
hPa
Rain since
9am
mm
Dir  Spd
km/h
Gust
km/h
Spd
kts
Gust
kts
11/11:30pm 9.9 7.6 5.9 76 1.9 SSE 7 9 4 5 1023.8 1023.6 0.0
11/11:00pm 10.0 7.3 5.8 75 1.9 SSE 9 11 5 6 1023.9 1023.7 0.0
11/10:30pm 10.6 7.6 6.0 73 2.1 SSE 11 13 6 7 1023.9 1023.7 0.0
11/10:00pm 11.2 8.2 6.1 71 2.4 SSE 11 13 6 7 1023.8 1023.6 0.0
11/09:30pm 12.0 9.1 6.7 70 2.5 SSE 11 13 6 7 1023.8 1023.6 0.0
11/09:00pm 12.4 9.3 7.3 71 2.5 SSE 13 15 7 8 1023.6 1023.4 0.0
11/08:30pm 11.9 8.7 6.8 71 2.4 S 13 15 7 8 1023.5 1023.3 0.0
11/08:00pm 11.8 9.3 6.5 70 2.5 S 9 11 5 6 1023.7 1023.5 0.0
11/07:30pm 12.4 9.5 6.7 68 2.7 SSW 11 13 6 7 1023.7 1023.5 0.0
11/07:00pm 13.1 10.2 6.7 65 3.1 SSW 11 13 6 7 1023.6 1023.4 0.0
11/06:30pm 14.1 10.9 6.9 62 3.5 SSW 13 15 7 8 1023.5 1023.3 0.0
11/06:00pm 15.9 11.9 6.6 54 4.6 SSW 17 20 9 11 1023.4 1023.2 0.0
11/05:30pm 17.2 12.7 7.0 51 5.1 S 20 26 11 14 1023.3 1023.1 0.0
11/05:00pm 17.9 13.3 6.4 47 5.7 S 20 26 11 14 1023.3 1023.1 0.0
11/04:30pm 18.8 14.3 6.3 44 6.2 S 19 30 10 16 1023.2 1023.0 0.0
11/04:00pm 19.0 14.7 6.8 45 6.1 SSW 19 35 10 19 1023.1 1022.9 0.0
11/03:30pm 18.9 14.3 6.4 44 6.3 SSW 20 33 11 18 1023.1 1022.9 0.0
11/03:00pm 18.8 14.1 6.0 43 6.3 SSW 20 28 11 15 1023.3 1023.1 0.0
11/02:30pm 19.3 15.4 7.1 45 6.2 S 17 26 9 14 1023.3 1023.1 0.0
11/02:00pm 17.8 13.6 5.7 45 5.9 S 17 26 9 14 1023.6 1023.4 0.0
11/01:30pm 17.8 14.0 6.0 46 5.8 SSE 15 24 8 13 1023.9 1023.7 0.0
11/01:00pm 17.6 13.9 6.5 48 5.5 S 15 24 8 13 1024.3 1024.2 0.0
11/12:30pm 17.4 13.4 6.6 49 5.4 SSW 17 26 9 14 1024.9 1024.8 0.0
11/12:00pm 16.4 14.0 6.8 53 4.7 SSW 9 20 5 11 1025.2 1025.1 0.0
11/11:30am 15.6 11.7 6.9 56 4.3 SSE 17 24 9 13 1025.4 1025.3 0.0
11/11:00am 15.1 10.6 6.9 58 4.0 SSW 20 26 11 14 1025.5 1025.4 0.0
11/10:30am 14.9 10.5 7.5 61 3.7 SSW 20 28 11 15 1025.4 1025.3 0.0
11/10:00am 14.1 10.0 8.7 70 2.7 SSE 20 32 11 17 1025.4 1025.3 0.0
11/09:30am 13.6 8.7 8.4 71 2.6 S 24 30 13 16 1025.3 1025.2 0.0
11/09:00am 13.9 10.0 7.2 64 3.3 S 17 20 9 11 1025.1 1025.0 0.0
11/08:30am 13.6 9.7 7.2 65 3.1 SSW 17 24 9 13 1024.9 1024.8 0.0
11/08:00am 13.2 9.4 7.4 68 2.8 SSW 17 22 9 12 1024.7 1024.6 0.0
11/07:30am 12.6 10.3 8.9 78 1.9 SSW 11 13 6 7 1024.5 1024.4 0.0
11/07:00am 12.6 9.4 8.5 76 2.0 S 15 20 8 11 1024.3 1024.2 0.0
11/06:30am 12.0 9.5 9.7 86 1.2 SSW 13 17 7 9 1024.0 1023.8 0.0
11/06:00am 11.7 9.6 9.6 87 1.1 SSW 11 13 6 7 1023.7 1023.5 0.0
11/05:30am 11.5 8.8 9.1 85 1.2 SW 13 17 7 9 1023.6 1023.4 0.0
11/05:00am 12.1 9.0 8.9 81 1.6 SSW 15 19 8 10 1023.5 1023.3 0.0
11/04:30am 12.5 8.2 9.3 81 1.6 SSW 22 32 12 17 1023.4 1023.2 0.0
11/04:00am 13.0 8.9 8.7 75 2.2 SSW 20 28 11 15 1023.3 1023.1 0.0
11/03:30am 13.2 9.0 8.1 71 2.5 SSW 20 26 11 14 1023.3 1023.1 0.0
11/03:00am 13.3 9.1 8.2 71 2.5 SSW 20 24 11 13 1023.2 1023.0 0.0
11/02:30am 13.2 9.6 8.5 73 2.4 SSW 17 24 9 13 1023.3 1023.1 0.0
11/02:00am 13.2 9.9 9.5 78 1.9 SSW 17 22 9 12 1023.5 1023.3 0.0
11/01:30am 13.4 9.4 9.1 75 2.2 S 20 28 11 15 1023.6 1023.4 0.0
11/01:00am 13.3 10.1 9.9 80 1.8 SW 17 20 9 11 1023.9 1023.7 0.0
11/12:30am 13.3 10.6 10.3 82 1.6 SW 15 19 8 10 1023.9 1023.7 0.0
11/12:00am 13.5 10.0 10.3 81 1.7 SW 19 22 10 12 1024.0 1023.8 0.0
 
Date/Time
EST
Temp
°C
App
Temp
°C
Dew
Point
°C
Rel
Hum
%
Delta-T
°C
Wind Press
QNH
hPa
Press
MSL
hPa
Rain since
9am
mm
Dir  Spd
km/h
Gust
km/h
Spd
kts
Gust
kts
10/11:30pm 13.4 11.0 10.2 81 1.7 SSW 13 17 7 9 1024.1 1023.9 0.0
10/11:00pm 13.2 10.5 10.4 83 1.5 SSW 15 20 8 11 1024.1 1023.9 0.0
10/10:30pm 12.1 9.2 9.7 85 1.2 SW 15 17 8 9 1024.3 1024.2 0.0
10/10:00pm 12.0 9.0 9.2 83 1.4 SW 15 17 8 9 1024.3 1024.2 0.0
10/09:30pm 12.3 9.3 9.1 81 1.6 SW 15 17 8 9 1024.2 1024.1 0.0
10/09:00pm 12.9 9.6 9.5 80 1.7 SW 17 20 9 11 1024.0 1023.8 0.0
10/08:30pm 13.1 9.8 9.5 79 1.8 SSW 17 20 9 11 1023.9 1023.7 0.0
10/08:00pm 13.6 9.9 9.6 77 2.1 SW 19 22 10 12 1023.7 1023.5 0.0
10/07:30pm 14.1 10.7 9.3 73 2.5 SW 17 22 9 12 1023.4 1023.2 0.0
10/07:00pm 14.9 11.0 9.3 69 2.9 SW 20 28 11 15 1023.1 1022.9 0.0
10/06:30pm 16.4 11.7 9.3 63 3.7 SW 24 32 13 17 1022.9 1022.7 0.0
10/06:00pm 17.1 12.8 9.5 61 4.0 SSW 22 30 12 16 1022.6 1022.4 0.0
10/05:30pm 18.3 14.1 9.9 58 4.5 SSW 22 28 12 15 1022.4 1022.2 0.0
10/05:00pm 18.4 13.6 10.3 59 4.3 SSW 26 32 14 17 1022.3 1022.1 0.0
10/04:30pm 18.4 14.3 10.0 58 4.5 SW 22 28 12 15 1022.2 1022.0 0.0
10/04:00pm 18.5 14.4 10.1 58 4.5 SW 22 28 12 15 1022.2 1022.0 0.0
10/03:30pm 18.4 14.3 10.0 58 4.5 SSW 22 28 12 15 1022.4 1022.2 0.0
10/03:00pm 18.6 13.3 8.6 52 5.2 SSW 26 33 14 18 1022.5 1022.3 0.0
10/02:30pm 18.3 13.6 9.4 56 4.7 SW 24 30 13 16 1022.7 1022.5 0.0
10/02:00pm 17.9 13.1 9.0 56 4.6 SW 24 32 13 17 1022.9 1022.7 0.0
10/01:30pm 18.3 14.0 9.4 56 4.7 SSW 22 32 12 17 1023.4 1023.2 0.0
10/01:00pm 17.5 13.2 9.2 58 4.3 SW 22 33 12 18 1023.8 1023.6 0.0
10/12:30pm 17.0 12.7 9.2 60 4.1 SW 22 28 12 15 1024.1 1023.9 0.0
10/12:00pm 16.9 11.8 9.1 60 4.0 SW 26 35 14 19 1024.3 1024.2 0.0
10/11:30am 16.5 12.0 8.7 60 4.0 SW 22 37 12 20 1024.4 1024.3 0.0
10/11:00am 16.1 11.5 8.3 60 4.0 SSW 22 30 12 16 1024.5 1024.4 0.0
10/10:30am 16.2 11.6 8.2 59 4.1 SW 22 39 12 21 1024.5 1024.4 0.0
10/10:00am 15.3 11.2 7.8 61 3.8 WSW 19 22 10 12 1024.6 1024.5 0.0

Other formats

Comma delimited format used in spreadsheet applications
http://www.bom.gov.au/fwo/IDV60801/IDV60801.94827.axf

JavaScript Object Notation format (JSON) in row-major order
http://www.bom.gov.au/fwo/IDV60801/IDV60801.94827.json

Data quality

Most of these data are generated automatically and are frequently updated. Quality checks on data are not normally performed. It is possible for incorrect values to appear. Refer to information at About Latest Weather Observations and please check the disclaimer before using these data.